Aeroporto :
LOGIN :

Iscrizione | Disclaimer

   EN    FR    IT 

 










Sommario :    VFR   VFR Marginale   IFR   IFR Intensivo   IFR Molto Intensivo
Visibilità : 
Base nubi : 
>= 8 km
>= 3000ft
5 / 8 km
1000 / 3000 ft
1500m / 5 km
500 / 1000 ft
800 / 1500m
200 / 500 ft
< 800m
< 200 ft
Simboli :   Temporali  Nebbia  Neve Forte  Precipitazioni Forti  Vento > 20 kt
SIGMETs :   Varie  Temporali  Ghiacco  Turbolenza  Onda orograficha  Ceneri Vulcaniche






- Altitudine del aeroporto : 604 ft
- Codice IATA : LCJ


EPLL - Lodz

ULTIMO METAR :
  • 151530Z 21008KT CAVOK 07/04 Q1003

METARs OBSOLETI :
  • 151500Z 23009KT 9999 SCT032 07/04 Q1003
  • 151430Z 21008KT 170V230 9999 FEW028 BKN046 07/04 Q1003
  • 151400Z 22009KT 180V240 9999 -RA FEW026 BKN035 08/04 Q1003
  • 151330Z 21009KT 170V250 9999 FEW029 BKN048 08/03 Q1003
  • 151300Z 21007KT 180V240 9999 SCT043 08/02 Q1003

TAF TAF EPLL
Valido dal 15 a 12 ore il 16 a 12 ore UTC


151130Z 1512/1612 17008KT CAVOK
BECMG 1513/1516 23010KT
TEMPO 1513/1520 21015G28KT -RA SCT008 BKN014
BECMG 1609/1612 18005KT



MetMap, La meteo Aeronautica in un colpo d'occhio ! - Copyright ORBIFLY Dicembre 2007 - Disclaimer

ORBIFLY MET'MAP TEAM :

Programmazione e sviluppo : Alexandra Zaïnal
Concezione : Baudouin d'Aumeries
Aiuto per la programmazione : Marc-Olivier Méhu
Supporto tecnico e logistico : Manuel Goepfert
Aiuto per la traduzione : Arnaldo La Scala

Contatto : metmap@orbifly.com




FONTI E CREDITI :

   NOAA